Terminal Aerodrome Forecast
Issued by NWS

Home | Current Version | Previous Version | Text Only | Print | Product List | Glossary On
Versions: 1 2 3 4 5 6 7 8 9 10 11 12
000
FTUS44 KEPZ 181700
TAFTCS
TAF
KTCS 181721Z 1818/1918 12006KT P6SM FEW040 BKN060
     FM182100 16007KT P6SM VCSH SCT025 BKN040
      TEMPO 1821/1901 -SHRA BKN025
     FM190200 35006KT P6SM BKN040
     FM191000 35005KT P6SM SKC=

USA.gov is the U.S. government's official web portal to all federal, state and local government web resources and services.